createdAt,value
2023-04-08T00:00:07.103Z,30.34
2023-04-08T00:00:37.141Z,30.31
2023-04-08T00:01:07.164Z,30.29
2023-04-08T00:01:37.228Z,30.32
2023-04-08T00:02:07.381Z,30.31
2023-04-08T00:02:37.564Z,30.34
2023-04-08T00:03:07.489Z,30.35
2023-04-08T00:03:37.549Z,30.29
2023-04-08T00:04:07.813Z,30.28
2023-04-08T00:04:37.482Z,30.28
2023-04-08T00:05:07.495Z,30.29
2023-04-08T00:05:37.500Z,30.31
2023-04-08T00:06:07.532Z,30.26
2023-04-08T00:06:37.570Z,30.29
2023-04-08T00:07:07.607Z,30.34
2023-04-08T00:07:37.630Z,30.29
2023-04-08T00:08:07.686Z,30.32
2023-04-08T00:08:37.714Z,30.32
2023-04-08T00:09:07.748Z,30.31
2023-04-08T00:09:37.797Z,30.34
2023-04-08T00:10:07.847Z,30.30
2023-04-08T00:10:37.900Z,30.32
2023-04-08T00:11:07.905Z,30.28
2023-04-08T00:11:38.031Z,30.25
2023-04-08T00:12:08.066Z,30.31
2023-04-08T00:12:38.090Z,30.28
2023-04-08T00:13:08.128Z,30.34
2023-04-08T00:13:38.160Z,30.28
2023-04-08T00:14:08.193Z,30.31
2023-04-08T00:14:38.248Z,30.29
2023-04-08T00:15:08.275Z,30.35
2023-04-08T00:15:38.316Z,30.32
2023-04-08T00:16:08.340Z,30.32
2023-04-08T00:16:38.405Z,30.29
2023-04-08T00:17:08.520Z,30.31
2023-04-08T00:17:38.515Z,30.28
2023-04-08T00:18:08.585Z,30.28
2023-04-08T00:18:38.650Z,30.29
2023-04-08T00:19:08.692Z,30.32
2023-04-08T00:19:38.748Z,30.31
2023-04-08T00:20:08.775Z,30.28
2023-04-08T00:20:38.855Z,30.26
2023-04-08T00:21:08.870Z,30.31
2023-04-08T00:21:38.903Z,30.28
2023-04-08T00:22:08.933Z,30.28
2023-04-08T00:22:38.977Z,30.29
2023-04-08T00:23:08.993Z,30.32
2023-04-08T00:23:39.032Z,30.29
2023-04-08T00:24:09.079Z,30.32
2023-04-08T00:24:39.112Z,30.32
2023-04-08T00:25:09.150Z,30.32
2023-04-08T00:25:39.192Z,30.31
2023-04-08T00:26:09.218Z,30.29
2023-04-08T00:26:39.240Z,30.31
2023-04-08T00:27:09.292Z,30.35
2023-04-08T00:27:39.318Z,30.35
2023-04-08T00:28:09.335Z,30.31
2023-04-08T00:28:39.370Z,30.32
2023-04-08T00:29:09.404Z,30.29
2023-04-08T00:29:39.453Z,30.32
2023-04-08T00:30:09.486Z,30.29
2023-04-08T00:30:39.577Z,30.29
2023-04-08T00:31:09.621Z,30.31
2023-04-08T00:31:39.645Z,30.32
2023-04-08T00:32:09.681Z,30.28
2023-04-08T00:32:39.821Z,30.35
2023-04-08T00:33:09.850Z,30.32
2023-04-08T00:33:39.897Z,30.31
2023-04-08T00:34:09.933Z,30.29
2023-04-08T00:34:39.961Z,30.26
2023-04-08T00:35:09.954Z,30.31
2023-04-08T00:36:10.048Z,30.29
2023-04-08T00:36:40.020Z,30.29
2023-04-08T00:37:40.101Z,30.32
2023-04-08T00:38:10.220Z,30.31
2023-04-08T00:38:40.222Z,30.33
2023-04-08T00:39:10.352Z,30.35
2023-04-08T00:39:40.357Z,30.31
2023-04-08T00:40:10.347Z,30.35
2023-04-08T00:40:40.461Z,30.35
2023-04-08T00:41:10.574Z,30.31
2023-04-08T00:41:40.695Z,30.33
2023-04-08T00:42:10.688Z,30.34
2023-04-08T00:42:40.805Z,30.31
2023-04-08T00:43:10.924Z,30.29
2023-04-08T00:43:40.921Z,30.31
2023-04-08T00:44:41.052Z,30.32
2023-04-08T00:45:11.085Z,30.35
2023-04-08T00:45:41.123Z,30.32
2023-04-08T00:46:11.186Z,30.32
2023-04-08T00:46:41.258Z,30.32
2023-04-08T00:47:11.319Z,30.31
2023-04-08T00:47:41.408Z,30.31
2023-04-08T00:48:11.467Z,30.32
2023-04-08T00:48:41.498Z,30.32
2023-04-08T00:49:11.525Z,30.32
2023-04-08T00:49:41.574Z,30.32
2023-04-08T00:50:11.610Z,30.31
2023-04-08T00:50:41.648Z,30.31
2023-04-08T00:51:11.678Z,30.33
2023-04-08T00:51:41.744Z,30.28
2023-04-08T00:52:11.758Z,30.26
2023-04-08T00:52:41.778Z,30.32
2023-04-08T00:53:11.816Z,30.27
2023-04-08T00:53:41.848Z,30.27
2023-04-08T00:54:11.878Z,30.29
2023-04-08T00:54:41.916Z,30.33
2023-04-08T00:55:11.955Z,30.31
2023-04-08T00:55:41.984Z,30.32
2023-04-08T00:56:12.022Z,30.33
2023-04-08T00:56:42.049Z,30.31
2023-04-08T00:57:12.076Z,30.31
2023-04-08T00:57:42.106Z,30.35
2023-04-08T00:58:12.143Z,30.31
2023-04-08T00:58:42.166Z,30.32
2023-04-08T00:59:12.201Z,30.32
2023-04-08T00:59:42.233Z,30.35
2023-04-08T01:00:12.272Z,30.27
2023-04-08T01:00:42.293Z,30.35
2023-04-08T01:01:12.410Z,30.29
2023-04-08T01:01:42.434Z,30.32
2023-04-08T01:02:12.474Z,30.33
2023-04-08T01:02:42.614Z,30.29
2023-04-08T01:03:12.586Z,30.30
2023-04-08T01:03:42.591Z,30.31
2023-04-08T01:04:12.695Z,30.33
2023-04-08T01:04:42.659Z,30.33
2023-04-08T01:05:12.675Z,30.32
2023-04-08T01:05:42.707Z,30.35
2023-04-08T01:06:12.742Z,30.30
2023-04-08T01:06:42.803Z,30.27
2023-04-08T01:07:12.835Z,30.30
2023-04-08T01:07:42.846Z,30.33
2023-04-08T01:08:12.878Z,30.35
2023-04-08T01:08:42.903Z,30.29
2023-04-08T01:09:12.951Z,30.38
2023-04-08T01:09:42.984Z,30.32
2023-04-08T01:10:13.010Z,30.26
2023-04-08T01:10:43.040Z,30.33
2023-04-08T01:11:13.079Z,30.31
2023-04-08T01:11:43.101Z,30.32
2023-04-08T01:12:13.140Z,30.33
2023-04-08T01:12:43.172Z,30.30
2023-04-08T01:13:13.210Z,30.31
2023-04-08T01:13:43.240Z,30.30
2023-04-08T01:14:13.268Z,30.32
2023-04-08T01:14:43.317Z,30.27
2023-04-08T01:15:13.337Z,30.36
2023-04-08T01:15:43.403Z,30.35
2023-04-08T01:16:13.509Z,30.35
2023-04-08T01:16:43.549Z,30.30
2023-04-08T01:17:13.577Z,30.38
2023-04-08T01:17:43.673Z,30.29
2023-04-08T01:18:13.730Z,30.35
2023-04-08T01:18:43.747Z,30.35
2023-04-08T01:19:13.782Z,30.35
2023-04-08T01:19:43.816Z,30.38
2023-04-08T01:20:13.859Z,30.38
2023-04-08T01:20:43.880Z,30.29
2023-04-08T01:21:13.924Z,30.35
2023-04-08T01:21:43.938Z,30.40
2023-04-08T01:22:13.981Z,30.26
2023-04-08T01:22:44.036Z,30.32
2023-04-08T01:23:14.025Z,30.35
2023-04-08T01:23:44.055Z,30.32
2023-04-08T01:24:14.095Z,30.32
2023-04-08T01:24:44.130Z,30.27
2023-04-08T01:25:14.152Z,30.38
2023-04-08T01:25:44.182Z,30.32
2023-04-08T01:26:14.221Z,30.33
2023-04-08T01:26:44.268Z,30.33
2023-04-08T01:27:14.309Z,30.33
2023-04-08T01:27:44.343Z,30.39
2023-04-08T01:28:14.368Z,30.38
2023-04-08T01:28:44.403Z,30.38
2023-04-08T01:29:14.435Z,30.33
2023-04-08T01:29:44.471Z,30.36
2023-04-08T01:30:14.512Z,30.35
2023-04-08T01:30:44.549Z,30.35
2023-04-08T01:31:14.607Z,30.33
2023-04-08T01:31:44.791Z,30.33
2023-04-08T01:32:14.699Z,30.38
2023-04-08T01:32:44.746Z,30.35
2023-04-08T01:33:14.770Z,30.33
2023-04-08T01:33:44.804Z,30.35
2023-04-08T01:34:14.836Z,30.33
2023-04-08T01:34:44.845Z,30.36
2023-04-08T01:35:44.953Z,30.39
2023-04-08T01:36:14.929Z,30.31
2023-04-08T01:36:44.928Z,30.36
2023-04-08T01:37:15.045Z,30.31
2023-04-08T01:37:45.052Z,30.27
2023-04-08T01:38:15.096Z,30.35
2023-04-08T01:38:45.058Z,30.33
2023-04-08T01:39:45.136Z,30.33
2023-04-08T01:40:15.269Z,30.30
2023-04-08T01:40:45.264Z,30.31
2023-04-08T01:41:15.287Z,30.33
2023-04-08T01:41:45.272Z,30.31
2023-04-08T01:42:15.387Z,30.31
2023-04-08T01:42:45.382Z,30.33
2023-04-08T01:43:45.463Z,30.31
2023-04-08T01:44:15.463Z,30.33
2023-04-08T01:44:45.507Z,30.35
2023-04-08T01:45:15.533Z,30.31
2023-04-08T01:45:45.595Z,30.33
2023-04-08T01:46:15.687Z,30.31
2023-04-08T01:46:45.814Z,30.25
2023-04-08T01:47:15.726Z,30.33
2023-04-08T01:47:45.760Z,30.29
2023-04-08T01:48:15.812Z,30.31
2023-04-08T01:48:45.844Z,30.35
2023-04-08T01:49:15.874Z,30.33
2023-04-08T01:49:45.906Z,30.33
2023-04-08T01:50:15.938Z,30.33
2023-04-08T01:50:46.002Z,30.35
2023-04-08T01:51:16.006Z,30.36
2023-04-08T01:51:46.040Z,30.37
2023-04-08T01:52:16.078Z,30.31
2023-04-08T01:52:46.113Z,30.31
2023-04-08T01:53:16.137Z,30.33
2023-04-08T01:53:46.212Z,30.26
2023-04-08T01:54:16.247Z,30.33
2023-04-08T01:54:46.257Z,30.31
2023-04-08T01:55:16.292Z,30.25
2023-04-08T01:55:46.330Z,30.33
2023-04-08T01:56:16.349Z,30.33
2023-04-08T01:56:46.377Z,30.31
2023-04-08T01:57:16.413Z,30.37
2023-04-08T01:57:46.442Z,30.32
2023-04-08T01:58:16.472Z,30.31
2023-04-08T01:58:46.529Z,30.35
2023-04-08T01:59:16.570Z,30.34
2023-04-08T01:59:46.590Z,30.37
2023-04-08T02:00:16.638Z,30.33
2023-04-08T02:00:46.669Z,30.36
2023-04-08T02:01:16.701Z,30.36
2023-04-08T02:01:46.879Z,30.34
2023-04-08T02:02:16.908Z,30.36
2023-04-08T02:02:46.949Z,30.31
2023-04-08T02:03:17.280Z,30.35
2023-04-08T02:03:47.216Z,30.31
2023-04-08T02:04:17.236Z,30.30
2023-04-08T02:04:47.263Z,30.33
2023-04-08T02:05:17.215Z,30.31
2023-04-08T02:05:47.260Z,30.34
2023-04-08T02:06:17.280Z,30.33
2023-04-08T02:06:47.314Z,30.36
2023-04-08T02:07:17.347Z,30.31
2023-04-08T02:07:47.375Z,30.42
2023-04-08T02:08:17.405Z,30.31
2023-04-08T02:08:47.473Z,30.36
2023-04-08T02:09:17.495Z,30.40
2023-04-08T02:09:47.498Z,30.34
2023-04-08T02:10:17.533Z,30.33
2023-04-08T02:10:47.565Z,30.31
2023-04-08T02:11:17.603Z,30.36
2023-04-08T02:11:47.626Z,30.33
2023-04-08T02:12:17.654Z,30.36
2023-04-08T02:12:47.683Z,30.36
2023-04-08T02:13:17.714Z,30.37
2023-04-08T02:13:47.763Z,30.36
2023-04-08T02:14:17.789Z,30.39
2023-04-08T02:14:47.819Z,30.36
2023-04-08T02:15:17.855Z,30.39
2023-04-08T02:15:47.932Z,30.39
2023-04-08T02:16:17.989Z,30.35
2023-04-08T02:16:48.131Z,30.33
2023-04-08T02:17:18.095Z,30.37
2023-04-08T02:17:48.155Z,30.44
2023-04-08T02:18:18.164Z,30.33
2023-04-08T02:18:48.406Z,30.36
2023-04-08T02:19:18.345Z,30.36
2023-04-08T02:19:48.387Z,30.31
2023-04-08T02:20:18.402Z,30.34
2023-04-08T02:20:48.479Z,30.39
2023-04-08T02:21:18.480Z,30.37
2023-04-08T02:21:48.517Z,30.37
2023-04-08T02:22:18.556Z,30.37
2023-04-08T02:22:48.573Z,30.37
2023-04-08T02:23:18.615Z,30.33
2023-04-08T02:23:48.645Z,30.33
2023-04-08T02:24:18.711Z,30.40
2023-04-08T02:24:48.756Z,30.29
2023-04-08T02:25:18.777Z,30.33
2023-04-08T02:25:48.799Z,30.33
2023-04-08T02:26:18.830Z,30.27
2023-04-08T02:26:48.862Z,30.37
2023-04-08T02:27:18.893Z,30.33
2023-04-08T02:27:48.917Z,30.34
2023-04-08T02:28:18.953Z,30.34
2023-04-08T02:28:49.216Z,30.34
2023-04-08T02:29:19.021Z,30.34
2023-04-08T02:29:49.049Z,30.42
2023-04-08T02:30:19.096Z,30.36
2023-04-08T02:30:49.115Z,30.36
2023-04-08T02:31:19.157Z,30.34
2023-04-08T02:31:49.247Z,30.37
2023-04-08T02:32:19.211Z,30.36
2023-04-08T02:32:49.278Z,30.36
2023-04-08T02:33:19.316Z,30.31
2023-04-08T02:33:49.358Z,30.34
2023-04-08T02:34:19.375Z,30.34
2023-04-08T02:34:49.368Z,30.36
2023-04-08T02:35:49.529Z,30.37
2023-04-08T02:36:19.499Z,30.37
2023-04-08T02:36:49.493Z,30.34
2023-04-08T02:37:19.611Z,30.31
2023-04-08T02:37:49.735Z,30.31
2023-04-08T02:38:19.724Z,30.37
2023-04-08T02:39:19.736Z,30.26
2023-04-08T02:39:49.832Z,30.31
2023-04-08T02:40:19.973Z,30.32
2023-04-08T02:40:49.947Z,30.29
2023-04-08T02:41:50.017Z,30.34
2023-04-08T02:42:20.129Z,30.32
2023-04-08T02:42:50.261Z,30.33
2023-04-08T02:43:20.366Z,30.32
2023-04-08T02:43:50.376Z,30.34
2023-04-08T02:44:20.384Z,30.37
2023-04-08T02:44:50.414Z,30.36
2023-04-08T02:45:20.440Z,30.36
2023-04-08T02:45:50.480Z,30.36
2023-04-08T02:46:20.656Z,30.31
2023-04-08T02:46:50.605Z,30.32
2023-04-08T02:47:20.804Z,30.31
2023-04-08T02:47:50.744Z,30.36
2023-04-08T02:48:20.766Z,30.37
2023-04-08T02:48:51.037Z,30.35
2023-04-08T02:49:20.809Z,30.32
2023-04-08T02:49:50.847Z,30.30
2023-04-08T02:50:20.882Z,30.37
2023-04-08T02:50:50.925Z,30.26
2023-04-08T02:51:20.954Z,30.34
2023-04-08T02:51:50.980Z,30.37
2023-04-08T02:52:21.003Z,30.40
2023-04-08T02:52:51.061Z,30.40
2023-04-08T02:53:21.090Z,30.42
2023-04-08T02:53:51.180Z,30.37
2023-04-08T02:54:21.192Z,30.37
2023-04-08T02:54:51.222Z,30.42
2023-04-08T02:55:21.251Z,30.39
2023-04-08T02:55:51.306Z,30.37
2023-04-08T02:56:21.323Z,30.29
2023-04-08T02:56:51.374Z,30.40
2023-04-08T02:57:21.384Z,30.35
2023-04-08T02:57:51.411Z,30.39
2023-04-08T02:58:21.452Z,30.40
2023-04-08T02:58:51.738Z,30.40
2023-04-08T02:59:21.573Z,30.33
2023-04-08T02:59:51.593Z,30.37
2023-04-08T03:00:21.636Z,30.39
2023-04-08T03:00:51.679Z,30.32
2023-04-08T03:01:21.818Z,30.42
2023-04-08T03:01:51.822Z,30.39
2023-04-08T03:02:21.830Z,30.42
2023-04-08T03:02:52.000Z,30.36
2023-04-08T03:03:21.930Z,30.36
2023-04-08T03:03:52.066Z,30.37
2023-04-08T03:04:22.036Z,30.39
2023-04-08T03:04:52.069Z,30.40
2023-04-08T03:05:22.093Z,30.34
2023-04-08T03:05:52.125Z,30.32
2023-04-08T03:06:22.169Z,30.42
2023-04-08T03:06:52.197Z,30.42
2023-04-08T03:07:22.219Z,30.40
2023-04-08T03:07:52.259Z,30.42
2023-04-08T03:08:22.285Z,30.40
2023-04-08T03:08:52.552Z,30.34
2023-04-08T03:09:22.372Z,30.39
2023-04-08T03:09:52.384Z,30.43
2023-04-08T03:10:22.429Z,30.38
2023-04-08T03:10:52.453Z,30.38
2023-04-08T03:11:22.501Z,30.38
2023-04-08T03:11:52.529Z,30.34
2023-04-08T03:12:22.549Z,30.35
2023-04-08T03:12:52.582Z,30.37
2023-04-08T03:13:22.616Z,30.37
2023-04-08T03:13:52.646Z,30.34
2023-04-08T03:14:22.680Z,30.41
2023-04-08T03:14:52.712Z,30.43
2023-04-08T03:15:22.740Z,30.37
2023-04-08T03:15:52.779Z,30.45
2023-04-08T03:16:22.868Z,30.38
2023-04-08T03:16:52.912Z,30.41
2023-04-08T03:17:22.988Z,30.49
2023-04-08T03:17:53.039Z,30.37
2023-04-08T03:18:23.090Z,30.39
2023-04-08T03:18:53.116Z,30.38
2023-04-08T03:19:23.157Z,30.38
2023-04-08T03:19:53.183Z,30.34
2023-04-08T03:20:23.217Z,30.40
2023-04-08T03:20:53.265Z,30.38
2023-04-08T03:21:23.282Z,30.38
2023-04-08T03:21:53.308Z,30.37
2023-04-08T03:22:23.341Z,30.41
2023-04-08T03:22:53.374Z,30.42
2023-04-08T03:23:23.402Z,30.38
2023-04-08T03:23:53.444Z,30.35
2023-04-08T03:24:23.478Z,30.40
2023-04-08T03:24:53.509Z,30.38
2023-04-08T03:25:23.543Z,30.43
2023-04-08T03:25:53.577Z,30.44
2023-04-08T03:26:23.627Z,30.45
2023-04-08T03:26:53.680Z,30.42
2023-04-08T03:27:23.691Z,30.37
2023-04-08T03:27:53.722Z,30.38
2023-04-08T03:28:23.727Z,30.35
2023-04-08T03:28:53.765Z,30.44
2023-04-08T03:29:23.798Z,30.41
2023-04-08T03:29:53.830Z,30.37
2023-04-08T03:30:23.873Z,30.41
2023-04-08T03:30:53.915Z,30.43
2023-04-08T03:31:23.977Z,30.40
2023-04-08T03:31:54.049Z,30.37
2023-04-08T03:32:24.097Z,30.40
2023-04-08T03:32:54.207Z,30.38
2023-04-08T03:33:24.130Z,30.38
2023-04-08T03:33:54.174Z,30.43
2023-04-08T03:34:24.172Z,30.38
2023-04-08T03:34:54.303Z,30.41
2023-04-08T03:35:24.360Z,30.41
2023-04-08T03:35:54.412Z,30.43
2023-04-08T03:36:24.462Z,30.41
2023-04-08T03:36:54.585Z,30.43
2023-04-08T03:37:24.573Z,30.43
2023-04-08T03:37:54.692Z,30.41
2023-04-08T03:38:24.813Z,30.38
2023-04-08T03:38:54.814Z,30.44
2023-04-08T03:39:24.925Z,30.43
2023-04-08T03:39:55.044Z,30.41
2023-04-08T03:40:25.038Z,30.38
2023-04-08T03:40:55.152Z,30.43
2023-04-08T03:41:25.273Z,30.37
2023-04-08T03:41:55.412Z,30.37
2023-04-08T03:42:25.508Z,30.35
2023-04-08T03:42:55.504Z,30.40
2023-04-08T03:43:25.626Z,30.43
2023-04-08T03:43:55.742Z,30.36
2023-04-08T03:44:25.762Z,30.41
2023-04-08T03:44:55.799Z,30.35
2023-04-08T03:45:25.834Z,30.46
2023-04-08T03:45:55.874Z,30.44
2023-04-08T03:46:26.107Z,30.43
2023-04-08T03:46:55.962Z,30.40
2023-04-08T03:47:26.002Z,30.41
2023-04-08T03:47:56.076Z,30.34
2023-04-08T03:48:26.124Z,30.40
2023-04-08T03:48:56.154Z,30.42
2023-04-08T03:49:26.173Z,30.40
2023-04-08T03:49:56.204Z,30.35
2023-04-08T03:50:26.241Z,30.36
2023-04-08T03:50:56.272Z,30.43
2023-04-08T03:51:26.300Z,30.40
2023-04-08T03:51:56.332Z,30.38
2023-04-08T03:52:26.370Z,30.37
2023-04-08T03:52:56.401Z,30.36
2023-04-08T03:53:26.439Z,30.44
2023-04-08T03:53:56.472Z,30.36
2023-04-08T03:54:26.505Z,30.46
2023-04-08T03:54:56.534Z,30.40
2023-04-08T03:55:26.568Z,30.38
2023-04-08T03:55:56.602Z,30.38
2023-04-08T03:56:26.630Z,30.33
2023-04-08T03:56:56.670Z,30.41
2023-04-08T03:57:26.723Z,30.33
2023-04-08T03:57:56.724Z,30.38
2023-04-08T03:58:26.764Z,30.40
2023-04-08T03:58:56.794Z,30.40
2023-04-08T03:59:26.825Z,30.36
2023-04-08T03:59:56.867Z,30.33
2023-04-08T04:00:26.891Z,30.35
2023-04-08T04:00:56.919Z,30.38
2023-04-08T04:01:26.949Z,30.46
2023-04-08T04:01:57.023Z,30.36
2023-04-08T04:02:27.277Z,30.40
2023-04-08T04:02:57.254Z,30.38
2023-04-08T04:03:27.579Z,30.35
2023-04-08T04:03:57.383Z,30.41
2023-04-08T04:04:27.453Z,30.44
2023-04-08T04:04:57.438Z,30.35
2023-04-08T04:05:27.467Z,30.42
2023-04-08T04:05:57.499Z,30.40
2023-04-08T04:06:27.563Z,30.38
2023-04-08T04:06:57.587Z,30.38
2023-04-08T04:07:27.624Z,30.44
2023-04-08T04:07:57.666Z,30.35
2023-04-08T04:08:27.713Z,30.44
2023-04-08T04:08:57.737Z,30.46
2023-04-08T04:09:27.765Z,30.42
2023-04-08T04:09:57.791Z,30.38
2023-04-08T04:10:27.830Z,30.41
2023-04-08T04:10:57.858Z,30.40
2023-04-08T04:11:27.913Z,30.41
2023-04-08T04:11:57.947Z,30.38
2023-04-08T04:12:27.979Z,30.44
2023-04-08T04:12:58.054Z,30.39
2023-04-08T04:13:28.060Z,30.41
2023-04-08T04:13:58.100Z,30.41
2023-04-08T04:14:28.129Z,30.41
2023-04-08T04:14:58.161Z,30.46
2023-04-08T04:15:28.210Z,30.36
2023-04-08T04:15:58.263Z,30.37
2023-04-08T04:16:29.133Z,30.39
2023-04-08T04:16:58.304Z,30.40
2023-04-08T04:17:28.364Z,30.41
2023-04-08T04:17:58.440Z,30.41
2023-04-08T04:18:28.513Z,30.38
2023-04-08T04:18:58.576Z,30.35
2023-04-08T04:19:28.592Z,30.41
2023-04-08T04:19:58.625Z,30.46
2023-04-08T04:20:28.650Z,30.42
2023-04-08T04:20:58.688Z,30.46
2023-04-08T04:21:28.723Z,30.39
2023-04-08T04:21:58.758Z,30.41
2023-04-08T04:22:28.798Z,30.41
2023-04-08T04:22:58.840Z,30.41
2023-04-08T04:23:28.858Z,30.42
2023-04-08T04:23:58.898Z,30.42
2023-04-08T04:24:28.926Z,30.39
2023-04-08T04:24:58.944Z,30.41
2023-04-08T04:25:28.999Z,30.40
2023-04-08T04:25:59.021Z,30.42
2023-04-08T04:26:29.051Z,30.40
2023-04-08T04:26:59.080Z,30.36
2023-04-08T04:27:29.110Z,30.42
2023-04-08T04:27:59.147Z,30.42
2023-04-08T04:28:29.201Z,30.42
2023-04-08T04:28:59.218Z,30.44
2023-04-08T04:29:29.301Z,30.42
2023-04-08T04:29:59.331Z,30.41
2023-04-08T04:30:29.364Z,30.42
2023-04-08T04:30:59.411Z,30.38
2023-04-08T04:31:29.446Z,30.41
2023-04-08T04:31:59.458Z,30.38
2023-04-08T04:32:29.513Z,30.38
2023-04-08T04:32:59.554Z,30.42
2023-04-08T04:33:29.602Z,30.39
2023-04-08T04:33:59.634Z,30.40
2023-04-08T04:34:29.651Z,30.41
2023-04-08T04:34:59.751Z,30.42
2023-04-08T04:35:29.790Z,30.42
2023-04-08T04:35:59.784Z,30.46
2023-04-08T04:36:29.887Z,30.47
2023-04-08T04:36:59.887Z,30.36
2023-04-08T04:37:59.966Z,30.41
2023-04-08T04:38:29.961Z,30.36
2023-04-08T04:38:59.958Z,30.44
2023-04-08T04:39:30.072Z,30.41
2023-04-08T04:40:00.189Z,30.38
2023-04-08T04:40:30.189Z,30.41
2023-04-08T04:41:30.265Z,30.42
2023-04-08T04:42:00.385Z,30.39
2023-04-08T04:42:30.384Z,30.44
2023-04-08T04:43:00.509Z,30.41
2023-04-08T04:43:30.497Z,30.50
2023-04-08T04:44:00.537Z,30.44
2023-04-08T04:44:30.530Z,30.41
2023-04-08T04:45:00.555Z,30.41
2023-04-08T04:45:30.590Z,30.39
2023-04-08T04:46:00.728Z,30.39
2023-04-08T04:46:30.677Z,30.42
2023-04-08T04:47:00.728Z,30.39
2023-04-08T04:47:30.791Z,30.39
2023-04-08T04:48:00.883Z,30.41
2023-04-08T04:48:30.823Z,30.37
2023-04-08T04:49:00.875Z,30.44
2023-04-08T04:49:30.891Z,30.41
2023-04-08T04:50:00.915Z,30.44
2023-04-08T04:50:30.963Z,30.40
2023-04-08T04:51:00.976Z,30.42
2023-04-08T04:51:31.010Z,30.45
2023-04-08T04:52:01.055Z,30.37
2023-04-08T04:52:31.077Z,30.40
2023-04-08T04:53:01.120Z,30.45
2023-04-08T04:53:31.154Z,30.41
2023-04-08T04:54:01.181Z,30.39
2023-04-08T04:54:31.209Z,30.39
2023-04-08T04:55:01.265Z,30.39
2023-04-08T04:55:31.274Z,30.37
2023-04-08T04:56:01.365Z,30.37
2023-04-08T04:56:31.499Z,30.45
2023-04-08T04:57:01.519Z,30.37
2023-04-08T04:57:31.555Z,30.37
2023-04-08T04:58:01.623Z,30.39
2023-04-08T04:58:31.665Z,30.37
2023-04-08T04:59:01.689Z,30.36
2023-04-08T04:59:31.755Z,30.37
2023-04-08T05:00:03.819Z,30.46
2023-04-08T05:00:31.839Z,30.43
2023-04-08T05:01:01.867Z,30.44
2023-04-08T05:01:32.009Z,30.42
2023-04-08T05:02:02.080Z,30.44
2023-04-08T05:02:32.122Z,30.43
2023-04-08T05:03:02.256Z,30.40
2023-04-08T05:03:32.199Z,30.45
2023-04-08T05:04:02.265Z,30.49
2023-04-08T05:04:32.341Z,30.44
2023-04-08T05:05:02.454Z,30.42
2023-04-08T05:05:32.504Z,30.45
2023-04-08T05:06:02.539Z,30.46
2023-04-08T05:06:32.564Z,30.36
2023-04-08T05:07:02.595Z,30.44
2023-04-08T05:07:32.626Z,30.42
2023-04-08T05:08:02.701Z,30.44
2023-04-08T05:08:32.706Z,30.48
2023-04-08T05:09:02.735Z,30.43
2023-04-08T05:09:32.802Z,30.40
2023-04-08T05:10:02.825Z,30.46
2023-04-08T05:10:32.854Z,30.37
2023-04-08T05:11:02.890Z,30.39
2023-04-08T05:11:32.926Z,30.37
2023-04-08T05:12:02.968Z,30.42
2023-04-08T05:12:32.999Z,30.42
2023-04-08T05:13:03.039Z,30.42
2023-04-08T05:13:33.076Z,30.43
2023-04-08T05:14:03.106Z,30.36
2023-04-08T05:14:33.138Z,30.45
2023-04-08T05:15:03.196Z,30.40
2023-04-08T05:15:33.222Z,30.45
2023-04-08T05:16:03.300Z,30.44
2023-04-08T05:16:33.423Z,30.42
2023-04-08T05:17:03.346Z,30.40
2023-04-08T05:17:33.383Z,30.44
2023-04-08T05:18:03.465Z,30.44
2023-04-08T05:18:33.506Z,30.43
2023-04-08T05:19:03.544Z,30.40
2023-04-08T05:19:33.571Z,30.40
2023-04-08T05:20:03.636Z,30.37
2023-04-08T05:20:33.646Z,30.42
2023-04-08T05:21:03.681Z,30.43
2023-04-08T05:21:33.706Z,30.45
2023-04-08T05:22:03.745Z,30.45
2023-04-08T05:22:33.772Z,30.37
2023-04-08T05:23:03.799Z,30.45
2023-04-08T05:23:33.833Z,30.46
2023-04-08T05:24:03.862Z,30.43
2023-04-08T05:24:33.907Z,30.48
2023-04-08T05:25:03.927Z,30.40
2023-04-08T05:25:33.956Z,30.39
2023-04-08T05:26:03.990Z,30.42
2023-04-08T05:26:34.025Z,30.45
2023-04-08T05:27:04.056Z,30.39
2023-04-08T05:27:34.088Z,30.40
2023-04-08T05:28:04.126Z,30.36
2023-04-08T05:28:34.159Z,30.42
2023-04-08T05:29:04.185Z,30.40
2023-04-08T05:29:34.218Z,30.37
2023-04-08T05:30:04.251Z,30.43
2023-04-08T05:30:34.300Z,30.46
2023-04-08T05:31:04.360Z,30.42
2023-04-08T05:31:34.499Z,30.40
2023-04-08T05:32:04.431Z,30.39
2023-04-08T05:32:34.492Z,30.43
2023-04-08T05:33:04.560Z,30.37
2023-04-08T05:33:34.601Z,30.44
2023-04-08T05:34:04.639Z,30.45
2023-04-08T05:34:34.632Z,30.39
2023-04-08T05:35:34.807Z,30.42
2023-04-08T05:36:04.890Z,30.43
2023-04-08T05:36:34.901Z,30.39
2023-04-08T05:37:04.888Z,30.45
2023-04-08T05:37:35.029Z,30.42
2023-04-08T05:38:05.021Z,30.40
2023-04-08T05:39:05.009Z,30.42
2023-04-08T05:39:34.994Z,30.46
2023-04-08T05:40:05.115Z,30.45
2023-04-08T05:40:35.237Z,30.45
2023-04-08T05:41:05.223Z,30.45
2023-04-08T05:41:35.347Z,30.46
2023-04-08T05:42:05.352Z,30.42
2023-04-08T05:42:35.369Z,30.45
2023-04-08T05:43:05.355Z,30.43
2023-04-08T05:44:05.440Z,30.42
2023-04-08T05:44:35.469Z,30.42
2023-04-08T05:45:05.533Z,30.45
2023-04-08T05:45:35.556Z,30.45
2023-04-08T05:46:05.596Z,30.39
2023-04-08T05:46:35.642Z,30.40
2023-04-08T05:47:05.720Z,30.40
2023-04-08T05:47:35.729Z,30.45
2023-04-08T05:48:05.795Z,30.43
2023-04-08T05:48:35.823Z,30.43
2023-04-08T05:49:05.857Z,30.39
2023-04-08T05:49:35.899Z,30.46
2023-04-08T05:50:05.922Z,30.39
2023-04-08T05:50:35.991Z,30.45
2023-04-08T05:51:05.994Z,30.40
2023-04-08T05:51:36.034Z,30.43
2023-04-08T05:52:06.060Z,30.42
2023-04-08T05:52:36.117Z,30.45
2023-04-08T05:53:06.139Z,30.49
2023-04-08T05:53:36.171Z,30.49
2023-04-08T05:54:06.211Z,30.39
2023-04-08T05:54:36.241Z,30.37
2023-04-08T05:55:06.267Z,30.45
2023-04-08T05:55:36.296Z,30.45
2023-04-08T05:56:06.362Z,30.37
2023-04-08T05:56:36.367Z,30.46
2023-04-08T05:57:07.611Z,30.45
2023-04-08T05:57:36.475Z,30.49
2023-04-08T05:58:06.510Z,30.45
2023-04-08T05:58:36.545Z,30.37
2023-04-08T05:59:06.576Z,30.42
2023-04-08T05:59:36.605Z,30.40
2023-04-08T06:00:06.649Z,30.39
2023-04-08T06:00:36.673Z,30.43
2023-04-08T06:01:06.705Z,30.42
2023-04-08T06:01:36.880Z,30.46
2023-04-08T06:02:06.899Z,30.41
2023-04-08T06:02:37.160Z,30.40
2023-04-08T06:03:07.272Z,30.49
2023-04-08T06:03:37.224Z,30.45
2023-04-08T06:04:07.305Z,30.47
2023-04-08T06:04:37.223Z,30.52
2023-04-08T06:05:07.249Z,30.43
2023-04-08T06:05:37.187Z,30.46
2023-04-08T06:06:07.222Z,30.49
2023-04-08T06:06:37.259Z,30.46
2023-04-08T06:07:07.315Z,30.45
2023-04-08T06:07:37.358Z,30.47
2023-04-08T06:08:07.388Z,30.49
2023-04-08T06:08:37.426Z,30.43
2023-04-08T06:09:07.460Z,30.43
2023-04-08T06:09:37.492Z,30.42
2023-04-08T06:10:07.514Z,30.46
2023-04-08T06:10:37.549Z,30.42
2023-04-08T06:11:07.591Z,30.49
2023-04-08T06:11:37.630Z,30.47
2023-04-08T06:12:07.674Z,30.49
2023-04-08T06:12:37.722Z,30.49
2023-04-08T06:13:07.754Z,30.45
2023-04-08T06:13:37.802Z,30.47
2023-04-08T06:14:07.848Z,30.45
2023-04-08T06:14:37.849Z,30.52
2023-04-08T06:15:07.878Z,30.46
2023-04-08T06:15:37.934Z,30.47
2023-04-08T06:16:07.971Z,30.45
2023-04-08T06:16:38.016Z,30.49
2023-04-08T06:17:08.094Z,30.46
2023-04-08T06:17:38.373Z,30.47
2023-04-08T06:18:08.153Z,30.45
2023-04-08T06:18:38.188Z,30.46
2023-04-08T06:19:08.228Z,30.47
2023-04-08T06:19:38.254Z,30.45
2023-04-08T06:20:08.286Z,30.52
2023-04-08T06:20:38.317Z,30.45
2023-04-08T06:21:08.345Z,30.45
2023-04-08T06:21:38.381Z,30.47
2023-04-08T06:22:08.449Z,30.47
2023-04-08T06:22:38.481Z,30.49
2023-04-08T06:23:08.505Z,30.49
2023-04-08T06:23:38.537Z,30.47
2023-04-08T06:24:08.574Z,30.46
2023-04-08T06:24:38.606Z,30.46
2023-04-08T06:25:08.645Z,30.46
2023-04-08T06:25:38.680Z,30.46
2023-04-08T06:26:08.722Z,30.47
2023-04-08T06:26:38.731Z,30.46
2023-04-08T06:27:08.775Z,30.45
2023-04-08T06:27:38.799Z,30.47
2023-04-08T06:28:08.842Z,30.36
2023-04-08T06:28:38.861Z,30.46
2023-04-08T06:29:08.890Z,30.42
2023-04-08T06:29:39.718Z,30.46
2023-04-08T06:30:08.970Z,30.46
2023-04-08T06:30:38.995Z,30.49
2023-04-08T06:31:09.053Z,30.45
2023-04-08T06:31:39.128Z,30.42
2023-04-08T06:32:09.246Z,30.41
2023-04-08T06:32:39.320Z,30.47
2023-04-08T06:33:09.573Z,30.45
2023-04-08T06:33:39.389Z,30.45